createdAt,value
2018-08-11T00:00:47.254Z,50.21
2018-08-11T00:03:15.398Z,50.58
2018-08-11T00:05:43.675Z,50.84
2018-08-11T00:08:11.811Z,50.88
2018-08-11T00:10:40.064Z,51.37
2018-08-11T00:13:09.295Z,50.30
2018-08-11T00:15:37.638Z,50.93
2018-08-11T00:18:06.529Z,50.94
2018-08-11T00:20:34.663Z,50.54
2018-08-11T00:23:02.850Z,50.83
2018-08-11T00:25:31.059Z,51.66
2018-08-11T00:27:59.185Z,51.38
2018-08-11T00:30:27.334Z,51.47
2018-08-11T00:32:55.626Z,51.20
2018-08-11T00:35:23.805Z,50.66
2018-08-11T00:37:52.420Z,50.36
2018-08-11T00:40:20.987Z,50.62
2018-08-11T00:42:50.243Z,50.78
2018-08-11T00:45:18.910Z,50.89
2018-08-11T00:47:47.186Z,50.92
2018-08-11T00:50:24.876Z,50.93
2018-08-11T00:52:53.408Z,51.07
2018-08-11T00:55:21.699Z,50.39
2018-08-11T00:57:49.998Z,51.05
2018-08-11T01:00:19.159Z,51.52
2018-08-11T01:02:47.650Z,51.37
2018-08-11T01:05:18.001Z,50.98
2018-08-11T01:07:46.572Z,51.05
2018-08-11T01:10:15.474Z,50.66
2018-08-11T01:12:44.431Z,50.57
2018-08-11T01:15:17.795Z,50.56
2018-08-11T01:17:46.710Z,50.69
2018-08-11T01:20:15.496Z,50.11
2018-08-11T01:22:44.504Z,49.82
2018-08-11T01:25:13.394Z,49.60
2018-08-11T01:27:41.745Z,49.87
2018-08-11T01:30:14.053Z,49.84
2018-08-11T01:32:42.216Z,50.66
2018-08-11T01:35:11.081Z,50.54
2018-08-11T01:37:40.093Z,50.24
2018-08-11T01:40:10.391Z,50.26
2018-08-11T01:42:38.983Z,50.21
2018-08-11T01:45:08.320Z,49.92
2018-08-11T01:47:36.804Z,49.46
2018-08-11T01:50:05.559Z,49.48
2018-08-11T01:52:34.062Z,49.85
2018-08-11T01:55:02.336Z,49.18
2018-08-11T01:57:30.544Z,49.91
2018-08-11T01:59:58.847Z,49.19
2018-08-11T02:02:27.123Z,49.83
2018-08-11T02:04:55.384Z,49.07
2018-08-11T02:07:23.655Z,49.77
2018-08-11T02:09:51.948Z,49.08
2018-08-11T02:12:20.387Z,48.89
2018-08-11T02:14:48.493Z,48.77
2018-08-11T02:17:16.795Z,48.71
2018-08-11T02:19:44.987Z,49.85
2018-08-11T02:22:13.185Z,49.25
2018-08-11T02:24:41.474Z,49.34
2018-08-11T02:27:09.786Z,49.69
2018-08-11T02:29:38.007Z,48.78
2018-08-11T02:32:06.503Z,49.40
2018-08-11T02:34:36.141Z,48.92
2018-08-11T02:37:04.647Z,49.37
2018-08-11T02:39:32.787Z,49.36
2018-08-11T02:42:01.249Z,49.86
2018-08-11T02:44:29.399Z,49.51
2018-08-11T02:46:57.752Z,49.36
2018-08-11T02:49:26.102Z,49.56
2018-08-11T02:51:54.435Z,49.23
2018-08-11T02:54:22.624Z,49.45
2018-08-11T02:56:50.754Z,50.17
2018-08-11T02:59:24.660Z,50.11
2018-08-11T03:01:53.804Z,49.27
2018-08-11T03:04:22.391Z,49.97
2018-08-11T03:06:50.952Z,50.21
2018-08-11T03:09:19.837Z,49.71
2018-08-11T03:11:48.077Z,49.66
2018-08-11T03:14:16.463Z,49.85
2018-08-11T03:16:45.195Z,50.32
2018-08-11T03:19:13.552Z,49.82
2018-08-11T03:21:41.909Z,49.90
2018-08-11T03:24:10.415Z,49.82
2018-08-11T03:26:38.900Z,50.64
2018-08-11T03:29:07.257Z,50.20
2018-08-11T03:31:35.835Z,50.71
2018-08-11T03:34:04.053Z,50.72
2018-08-11T03:36:32.362Z,50.18
2018-08-11T03:39:00.661Z,50.98
2018-08-11T03:41:29.031Z,51.26
2018-08-11T03:43:57.264Z,51.33
2018-08-11T03:46:25.464Z,51.07
2018-08-11T03:48:53.798Z,51.19
2018-08-11T03:51:22.123Z,51.25
2018-08-11T03:53:50.275Z,52.06
2018-08-11T03:56:18.521Z,52.46
2018-08-11T03:58:46.759Z,51.34
2018-08-11T04:01:14.976Z,51.99
2018-08-11T04:03:43.831Z,52.48
2018-08-11T04:06:12.511Z,52.83
2018-08-11T04:08:41.188Z,52.53
2018-08-11T04:11:09.294Z,52.89
2018-08-11T04:13:37.688Z,53.29
2018-08-11T04:16:06.334Z,52.79
2018-08-11T04:18:34.736Z,53.38
2018-08-11T04:21:03.010Z,53.36
2018-08-11T04:23:32.059Z,54.08
2018-08-11T04:26:00.532Z,53.33
2018-08-11T04:28:29.010Z,54.04
2018-08-11T04:30:57.170Z,53.33
2018-08-11T04:33:25.567Z,53.57
2018-08-11T04:35:54.141Z,53.16
2018-08-11T04:38:22.285Z,52.58
2018-08-11T04:40:50.803Z,52.95
2018-08-11T04:43:19.130Z,52.79
2018-08-11T04:45:47.233Z,52.87
2018-08-11T04:48:15.954Z,53.32
2018-08-11T04:50:44.239Z,52.73
2018-08-11T04:53:12.784Z,52.31
2018-08-11T04:55:41.018Z,52.44
2018-08-11T04:58:09.427Z,51.87
2018-08-11T05:00:37.632Z,52.28
2018-08-11T05:03:06.066Z,52.23
2018-08-11T05:05:34.250Z,51.95
2018-08-11T05:08:02.370Z,51.63
2018-08-11T05:10:30.607Z,51.71
2018-08-11T05:12:59.571Z,51.50
2018-08-11T05:15:27.671Z,51.44
2018-08-11T05:17:56.146Z,51.14
2018-08-11T05:20:25.536Z,50.74
2018-08-11T05:22:53.923Z,50.77
2018-08-11T05:25:22.172Z,50.59
2018-08-11T05:27:50.662Z,50.69
2018-08-11T05:30:19.051Z,50.52
2018-08-11T05:32:47.292Z,50.55
2018-08-11T05:35:15.653Z,49.93
2018-08-11T05:37:43.956Z,49.82
2018-08-11T05:40:12.320Z,49.04
2018-08-11T05:42:40.531Z,49.67
2018-08-11T05:45:10.033Z,48.98
2018-08-11T05:47:38.244Z,48.54
2018-08-11T05:50:06.413Z,48.52
2018-08-11T05:52:34.728Z,48.80
2018-08-11T05:55:03.159Z,49.10
2018-08-11T05:57:31.477Z,48.07
2018-08-11T05:59:59.692Z,48.53
2018-08-11T06:02:28.250Z,48.58
2018-08-11T06:04:56.585Z,47.73
2018-08-11T06:07:25.942Z,47.90
2018-08-11T06:09:54.866Z,47.43
2018-08-11T06:12:23.222Z,47.38
2018-08-11T06:14:51.722Z,47.87
2018-08-11T06:17:19.888Z,47.68
2018-08-11T06:19:48.454Z,47.66
2018-08-11T06:22:16.819Z,47.62
2018-08-11T06:24:44.927Z,46.81
2018-08-11T06:27:13.567Z,46.81
2018-08-11T06:29:42.106Z,46.83
2018-08-11T06:32:10.688Z,46.52
2018-08-11T06:34:38.789Z,46.35
2018-08-11T06:37:07.416Z,46.23
2018-08-11T06:39:35.939Z,46.49
2018-08-11T06:42:04.248Z,46.19
2018-08-11T06:44:32.441Z,45.91
2018-08-11T06:47:00.674Z,46.18
2018-08-11T06:49:29.048Z,46.14
2018-08-11T06:51:57.508Z,45.42
2018-08-11T06:54:25.774Z,46.21
2018-08-11T06:56:54.082Z,45.39
2018-08-11T06:59:22.540Z,45.87
2018-08-11T07:01:50.679Z,45.45
2018-08-11T07:04:18.795Z,44.79
2018-08-11T07:06:47.132Z,44.92
2018-08-11T07:09:15.317Z,44.50
2018-08-11T07:11:43.494Z,45.13
2018-08-11T07:14:11.915Z,44.64
2018-08-11T07:16:40.341Z,44.79
2018-08-11T07:19:08.756Z,44.39
2018-08-11T07:21:37.066Z,44.91
2018-08-11T07:24:05.311Z,44.36
2018-08-11T07:26:33.520Z,44.65
2018-08-11T07:29:04.387Z,45.15
2018-08-11T07:31:32.851Z,44.96
2018-08-11T07:34:01.265Z,45.23
2018-08-11T07:36:29.992Z,44.88
2018-08-11T07:38:58.222Z,45.56
2018-08-11T07:41:26.444Z,45.02
2018-08-11T07:43:54.592Z,45.08
2018-08-11T07:46:23.032Z,44.68
2018-08-11T07:48:51.830Z,44.61
2018-08-11T07:54:15.905Z,45.04
2018-08-11T07:56:44.026Z,44.57
2018-08-11T07:59:12.644Z,44.28
2018-08-11T08:01:40.916Z,44.73
2018-08-11T08:04:09.159Z,44.21
2018-08-11T08:06:37.276Z,44.56
2018-08-11T08:09:08.440Z,43.95
2018-08-11T08:11:36.578Z,44.73
2018-08-11T08:14:05.166Z,44.28
2018-08-11T08:16:33.445Z,43.67
2018-08-11T08:19:01.649Z,44.37
2018-08-11T08:21:29.758Z,43.42
2018-08-11T08:23:57.858Z,43.53
2018-08-11T08:26:26.260Z,43.76
2018-08-11T08:28:54.324Z,43.17
2018-08-11T08:31:22.888Z,44.15
2018-08-11T08:33:51.119Z,43.52
2018-08-11T08:36:19.815Z,43.26
2018-08-11T08:38:47.958Z,43.28
2018-08-11T08:41:16.571Z,43.34
2018-08-11T08:43:44.720Z,43.83
2018-08-11T08:46:12.894Z,43.48
2018-08-11T08:48:41.120Z,43.36
2018-08-11T08:51:09.689Z,43.18
2018-08-11T08:53:38.039Z,42.95
2018-08-11T08:56:06.664Z,43.05
2018-08-11T08:58:34.951Z,42.58
2018-08-11T09:01:03.065Z,42.93
2018-08-11T09:03:31.754Z,42.93
2018-08-11T09:06:00.033Z,42.55
2018-08-11T09:08:28.262Z,42.82
2018-08-11T09:10:56.740Z,42.52
2018-08-11T09:13:47.287Z,42.85
2018-08-11T09:16:15.458Z,42.06
2018-08-11T09:18:43.892Z,42.15
2018-08-11T09:21:12.116Z,43.07
2018-08-11T09:23:40.448Z,42.05
2018-08-11T09:26:08.664Z,41.94
2018-08-11T09:28:37.058Z,42.04
2018-08-11T09:31:05.637Z,42.11
2018-08-11T09:33:34.302Z,42.75
2018-08-11T09:36:02.535Z,42.35
2018-08-11T09:38:31.135Z,41.86
2018-08-11T09:40:59.409Z,42.29
2018-08-11T09:43:27.929Z,42.79
2018-08-11T09:45:56.344Z,41.74
2018-08-11T09:48:24.527Z,41.72
2018-08-11T09:50:53.329Z,42.25
2018-08-11T09:53:21.842Z,41.56
2018-08-11T09:55:50.187Z,42.14
2018-08-11T09:58:18.653Z,41.72
2018-08-11T10:00:49.251Z,41.20
2018-08-11T10:03:17.723Z,41.39
2018-08-11T10:05:46.022Z,41.36
2018-08-11T10:08:14.195Z,41.93
2018-08-11T10:10:43.475Z,41.24
2018-08-11T10:13:11.888Z,40.79
2018-08-11T10:15:40.060Z,40.85
2018-08-11T10:18:08.591Z,41.56
2018-08-11T10:20:36.867Z,40.91
2018-08-11T10:23:05.542Z,40.62
2018-08-11T10:25:33.670Z,40.68
2018-08-11T10:28:01.993Z,41.74
2018-08-11T10:30:30.444Z,41.14
2018-08-11T10:32:58.875Z,40.64
2018-08-11T10:35:27.669Z,40.74
2018-08-11T10:37:55.918Z,40.18
2018-08-11T10:40:24.136Z,40.09
2018-08-11T10:42:52.449Z,40.89
2018-08-11T10:45:21.920Z,41.09
2018-08-11T10:47:50.467Z,40.37
2018-08-11T10:50:18.995Z,40.84
2018-08-11T10:52:47.345Z,40.32
2018-08-11T10:55:52.765Z,40.19
2018-08-11T10:58:22.048Z,40.43
2018-08-11T11:01:26.811Z,40.69
2018-08-11T11:03:55.318Z,40.45
2018-08-11T11:06:23.675Z,40.14
2018-08-11T11:11:10.807Z,41.01
2018-08-11T11:13:59.929Z,40.97
2018-08-11T11:16:28.199Z,39.91
2018-08-11T11:18:56.537Z,40.40
2018-08-11T11:21:24.902Z,39.75
2018-08-11T11:23:53.335Z,39.86
2018-08-11T11:26:21.589Z,40.73
2018-08-11T11:28:49.784Z,39.59
2018-08-11T11:31:18.225Z,39.56
2018-08-11T11:34:16.971Z,39.52
2018-08-11T11:36:45.153Z,38.89
2018-08-11T11:39:13.272Z,39.36
2018-08-11T11:41:41.536Z,39.27
2018-08-11T11:44:09.687Z,38.35
2018-08-11T11:46:37.796Z,39.20
2018-08-11T11:49:06.123Z,39.50
2018-08-11T11:51:34.359Z,39.27
2018-08-11T11:54:02.824Z,38.22
2018-08-11T12:02:09.446Z,37.89
2018-08-11T12:04:37.571Z,37.91
2018-08-11T12:07:06.160Z,38.13
2018-08-11T12:09:34.304Z,37.69
2018-08-11T12:12:02.427Z,37.35
2018-08-11T12:14:30.608Z,37.41
2018-08-11T12:16:58.810Z,36.64
2018-08-11T12:19:27.077Z,37.00
2018-08-11T12:21:55.235Z,36.21
2018-08-11T12:24:23.322Z,37.04
2018-08-11T12:26:51.470Z,36.56
2018-08-11T12:29:19.673Z,35.75
2018-08-11T12:31:47.840Z,36.00
2018-08-11T12:34:15.958Z,36.03
2018-08-11T12:36:44.299Z,36.91
2018-08-11T12:39:12.490Z,36.05
2018-08-11T12:41:41.306Z,35.86
2018-08-11T12:44:09.859Z,35.86
2018-08-11T12:46:37.955Z,36.15
2018-08-11T12:49:06.126Z,36.27
2018-08-11T12:51:34.228Z,35.94
2018-08-11T12:54:02.365Z,36.12
2018-08-11T12:56:30.550Z,36.23
2018-08-11T12:58:58.968Z,35.81
2018-08-11T13:01:27.198Z,35.26
2018-08-11T13:03:55.335Z,35.86
2018-08-11T13:06:23.816Z,34.79
2018-08-11T13:08:52.098Z,35.00
2018-08-11T13:11:20.261Z,35.60
2018-08-11T13:13:48.374Z,35.81
2018-08-11T13:16:16.522Z,35.78
2018-08-11T13:18:44.894Z,35.55
2018-08-11T13:21:13.039Z,34.63
2018-08-11T13:23:41.506Z,35.78
2018-08-11T13:26:10.013Z,35.59
2018-08-11T13:28:38.150Z,34.72
2018-08-11T13:31:06.791Z,34.72
2018-08-11T13:33:35.077Z,34.79
2018-08-11T13:36:03.208Z,34.39
2018-08-11T13:38:31.481Z,34.25
2018-08-11T13:40:59.634Z,34.37
2018-08-11T13:43:28.108Z,34.70
2018-08-11T13:45:56.384Z,35.22
2018-08-11T13:48:24.560Z,35.07
2018-08-11T13:50:52.758Z,34.95
2018-08-11T13:53:26.675Z,34.49
2018-08-11T13:55:54.951Z,34.67
2018-08-11T13:58:23.327Z,33.90
2018-08-11T14:00:52.191Z,34.45
2018-08-11T14:03:20.485Z,34.56
2018-08-11T14:05:48.622Z,34.15
2018-08-11T14:08:17.128Z,34.80
2018-08-11T14:10:45.497Z,34.35
2018-08-11T14:13:13.800Z,34.36
2018-08-11T14:15:42.931Z,34.72
2018-08-11T14:18:11.036Z,33.92
2018-08-11T14:20:39.332Z,33.76
2018-08-11T14:23:07.481Z,34.52
2018-08-11T14:25:35.665Z,33.63
2018-08-11T14:28:03.899Z,34.32
2018-08-11T14:30:32.032Z,34.15
2018-08-11T14:33:00.260Z,34.28
2018-08-11T14:35:28.501Z,34.42
2018-08-11T14:37:56.612Z,34.27
2018-08-11T14:40:24.831Z,33.75
2018-08-11T14:42:52.916Z,33.97
2018-08-11T14:45:21.838Z,33.52
2018-08-11T14:47:50.059Z,33.83
2018-08-11T14:50:18.135Z,33.25
2018-08-11T14:52:46.401Z,34.13
2018-08-11T14:55:14.698Z,33.79
2018-08-11T14:57:42.900Z,34.29
2018-08-11T15:00:13.006Z,34.12
2018-08-11T15:02:41.554Z,34.21
2018-08-11T15:05:10.332Z,33.95
2018-08-11T15:07:38.560Z,33.81
2018-08-11T15:10:07.530Z,33.90
2018-08-11T15:12:36.588Z,33.99
2018-08-11T15:15:05.782Z,33.49
2018-08-11T15:17:34.256Z,34.37
2018-08-11T15:20:02.353Z,33.88
2018-08-11T15:22:30.601Z,33.58
2018-08-11T15:24:58.675Z,33.54
2018-08-11T15:27:27.172Z,34.18
2018-08-11T15:29:55.344Z,33.96
2018-08-11T15:32:23.470Z,33.84
2018-08-11T15:34:51.674Z,32.78
2018-08-11T15:37:19.786Z,33.22
2018-08-11T15:39:47.891Z,33.18
2018-08-11T15:42:16.087Z,33.11
2018-08-11T15:44:44.230Z,32.79
2018-08-11T15:47:12.502Z,33.18
2018-08-11T15:49:40.931Z,32.36
2018-08-11T15:52:09.086Z,33.03
2018-08-11T15:54:37.435Z,33.95
2018-08-11T15:57:05.552Z,33.04
2018-08-11T15:59:33.726Z,33.07
2018-08-11T16:02:01.959Z,33.33
2018-08-11T16:04:30.123Z,33.35
2018-08-11T16:06:58.272Z,33.62
2018-08-11T16:09:26.424Z,32.99
2018-08-11T16:11:54.821Z,33.42
2018-08-11T16:14:22.934Z,33.51
2018-08-11T16:16:51.184Z,33.56
2018-08-11T16:19:19.469Z,33.67
2018-08-11T16:21:47.578Z,33.08
2018-08-11T16:24:15.890Z,33.37
2018-08-11T16:26:43.999Z,33.47
2018-08-11T16:29:12.182Z,33.12
2018-08-11T16:31:40.271Z,33.55
2018-08-11T16:34:08.393Z,32.79
2018-08-11T16:36:36.809Z,33.06
2018-08-11T16:39:08.850Z,33.52
2018-08-11T16:41:38.093Z,33.68
2018-08-11T16:44:06.229Z,32.83
2018-08-11T16:46:34.557Z,33.45
2018-08-11T16:49:02.818Z,33.60
2018-08-11T16:51:31.062Z,32.99
2018-08-11T16:54:00.042Z,33.50
2018-08-11T16:56:28.502Z,32.65
2018-08-11T16:58:56.714Z,32.58
2018-08-11T17:01:25.032Z,33.20
2018-08-11T17:03:53.239Z,32.60
2018-08-11T17:06:21.380Z,32.65
2018-08-11T17:08:49.610Z,33.25
2018-08-11T17:11:17.793Z,32.46
2018-08-11T17:13:45.929Z,33.11
2018-08-11T17:16:14.074Z,32.88
2018-08-11T17:18:42.207Z,33.06
2018-08-11T17:21:10.331Z,33.26
2018-08-11T17:23:38.438Z,33.26
2018-08-11T17:26:06.648Z,33.36
2018-08-11T17:28:34.916Z,33.49
2018-08-11T17:31:03.420Z,33.40
2018-08-11T17:33:32.037Z,33.24
2018-08-11T17:36:00.297Z,33.56
2018-08-11T17:38:28.713Z,33.10
2018-08-11T17:40:56.830Z,33.74
2018-08-11T17:43:25.079Z,32.83
2018-08-11T17:45:53.261Z,33.53
2018-08-11T17:48:21.438Z,33.10
2018-08-11T17:50:49.712Z,33.57
2018-08-11T17:53:18.887Z,33.34
2018-08-11T17:55:47.456Z,33.85
2018-08-11T17:58:15.666Z,33.33
2018-08-11T18:00:44.095Z,34.07
2018-08-11T18:03:12.183Z,33.99
2018-08-11T18:05:40.439Z,32.83
2018-08-11T18:08:08.655Z,33.40
2018-08-11T18:10:36.821Z,32.77
2018-08-11T18:13:05.278Z,33.01
2018-08-11T18:15:33.607Z,34.14
2018-08-11T18:18:01.728Z,33.00
2018-08-11T18:20:30.283Z,33.83
2018-08-11T18:22:58.407Z,33.23
2018-08-11T18:25:26.609Z,32.76
2018-08-11T18:27:54.947Z,33.04
2018-08-11T18:30:23.311Z,33.36
2018-08-11T18:32:52.931Z,32.72
2018-08-11T18:35:21.045Z,32.79
2018-08-11T18:37:49.258Z,32.82
2018-08-11T18:40:17.478Z,33.09
2018-08-11T18:42:45.587Z,33.67
2018-08-11T18:45:13.838Z,32.95
2018-08-11T18:47:42.000Z,33.74
2018-08-11T18:50:10.168Z,33.75
2018-08-11T18:52:38.435Z,33.96
2018-08-11T18:55:08.111Z,33.34
2018-08-11T18:57:36.466Z,33.81
2018-08-11T19:00:09.739Z,34.28
2018-08-11T19:02:38.682Z,34.63
2018-08-11T19:05:06.960Z,34.91
2018-08-11T19:07:35.089Z,34.84
2018-08-11T19:10:03.238Z,34.85
2018-08-11T19:12:31.586Z,35.03
2018-08-11T19:14:59.687Z,35.17
2018-08-11T19:17:27.903Z,34.61
2018-08-11T19:19:56.075Z,35.51
2018-08-11T19:22:24.131Z,35.49
2018-08-11T19:24:52.315Z,35.51
2018-08-11T19:27:20.415Z,34.92
2018-08-11T19:29:48.535Z,35.52
2018-08-11T19:32:16.836Z,34.84
2018-08-11T19:34:44.935Z,34.96
2018-08-11T19:37:13.255Z,35.81
2018-08-11T19:39:41.419Z,35.03
2018-08-11T19:42:09.532Z,36.06
2018-08-11T19:44:37.817Z,35.30
2018-08-11T19:47:06.380Z,36.28
2018-08-11T19:49:34.587Z,36.10
2018-08-11T19:52:02.735Z,36.75
2018-08-11T19:54:30.849Z,36.37
2018-08-11T19:56:59.280Z,37.02
2018-08-11T19:59:27.450Z,36.29
2018-08-11T20:01:55.758Z,37.08
2018-08-11T20:04:23.955Z,36.69
2018-08-11T20:06:52.123Z,36.95
2018-08-11T20:09:20.281Z,38.00
2018-08-11T20:11:48.379Z,37.13
2018-08-11T20:14:17.006Z,37.61
2018-08-11T20:16:45.267Z,37.80
2018-08-11T20:19:13.499Z,37.51
2018-08-11T20:21:41.598Z,38.01
2018-08-11T20:24:09.702Z,38.40
2018-08-11T20:26:37.943Z,38.41
2018-08-11T20:29:06.136Z,37.82
2018-08-11T20:31:34.234Z,37.97
2018-08-11T20:34:02.331Z,37.98
2018-08-11T20:36:30.459Z,38.57
2018-08-11T20:38:58.912Z,38.71
2018-08-11T20:41:27.015Z,38.48
2018-08-11T20:43:55.186Z,39.00
2018-08-11T20:46:23.348Z,39.43
2018-08-11T20:48:51.517Z,39.71
2018-08-11T20:51:19.678Z,40.24
2018-08-11T20:53:47.851Z,40.29
2018-08-11T20:56:16.059Z,40.48
2018-08-11T20:58:44.206Z,40.54
2018-08-11T21:01:12.461Z,40.97
2018-08-11T21:03:40.717Z,40.88
2018-08-11T21:06:08.883Z,41.64
2018-08-11T21:08:37.009Z,40.95
2018-08-11T21:11:05.439Z,41.73
2018-08-11T21:13:33.579Z,41.63
2018-08-11T21:16:02.229Z,42.35
2018-08-11T21:18:30.333Z,42.16
2018-08-11T21:20:58.815Z,41.37
2018-08-11T21:23:27.364Z,42.04
2018-08-11T21:25:55.778Z,43.38
2018-08-11T21:28:23.939Z,43.17
2018-08-11T21:30:52.133Z,43.38
2018-08-11T21:33:20.396Z,43.19
2018-08-11T21:35:48.538Z,42.94
2018-08-11T21:38:17.136Z,43.19
2018-08-11T21:40:45.310Z,43.53
2018-08-11T21:43:13.420Z,44.25
2018-08-11T21:45:44.255Z,43.91
2018-08-11T21:48:12.358Z,44.00
2018-08-11T21:50:40.663Z,43.96
2018-08-11T21:53:08.836Z,44.08
2018-08-11T21:55:36.983Z,45.00
2018-08-11T21:58:05.800Z,44.36
2018-08-11T22:00:35.232Z,45.08
2018-08-11T22:03:03.707Z,45.29
2018-08-11T22:05:31.840Z,44.98
2018-08-11T22:08:01.207Z,44.29
2018-08-11T22:10:29.563Z,44.89
2018-08-11T22:12:57.828Z,44.87
2018-08-11T22:15:25.954Z,44.42
2018-08-11T22:17:54.139Z,44.16
2018-08-11T22:20:22.415Z,44.64
2018-08-11T22:22:50.532Z,44.36
2018-08-11T22:25:18.929Z,45.26
2018-08-11T22:27:47.171Z,45.02
2018-08-11T22:30:15.277Z,44.60
2018-08-11T22:32:43.496Z,44.60
2018-08-11T22:35:12.495Z,45.30
2018-08-11T22:37:40.671Z,45.74
2018-08-11T22:40:09.003Z,45.87
2018-08-11T22:42:38.054Z,45.76
2018-08-11T22:45:08.663Z,45.56
2018-08-11T22:47:37.014Z,45.74
2018-08-11T22:50:07.071Z,45.92
2018-08-11T22:52:35.206Z,46.10
2018-08-11T22:55:03.507Z,46.77
2018-08-11T22:57:31.631Z,46.12
2018-08-11T23:00:00.077Z,46.35
2018-08-11T23:02:28.294Z,47.07
2018-08-11T23:04:56.435Z,46.74
2018-08-11T23:07:24.540Z,46.49
2018-08-11T23:09:52.662Z,46.19
2018-08-11T23:12:20.750Z,46.76
2018-08-11T23:14:48.927Z,46.47
2018-08-11T23:17:17.023Z,46.57
2018-08-11T23:19:45.285Z,46.42
2018-08-11T23:22:13.648Z,47.13
2018-08-11T23:24:41.858Z,47.25
2018-08-11T23:27:10.000Z,46.62
2018-08-11T23:29:38.127Z,47.23
2018-08-11T23:32:06.370Z,47.02
2018-08-11T23:34:34.506Z,47.81
2018-08-11T23:37:02.766Z,47.66
2018-08-11T23:39:30.897Z,46.86
2018-08-11T23:41:59.079Z,47.19
2018-08-11T23:44:27.202Z,47.42
2018-08-11T23:46:55.358Z,46.89
2018-08-11T23:49:23.787Z,47.32
2018-08-11T23:51:51.898Z,46.92
2018-08-11T23:54:20.147Z,46.97
2018-08-11T23:56:48.239Z,47.60
2018-08-11T23:59:16.404Z,47.00
